createdAt,value
2018-06-16T00:01:03.711Z,7.97
2018-06-16T00:02:39.298Z,7.47
2018-06-16T00:04:14.930Z,9.33
2018-06-16T00:05:50.568Z,7.53
2018-06-16T00:07:26.143Z,7.23
2018-06-16T00:09:01.730Z,7.53
2018-06-16T00:10:37.270Z,8.50
2018-06-16T00:12:12.885Z,8.47
2018-06-16T00:13:48.478Z,9.17
2018-06-16T00:15:24.060Z,7.50
2018-06-16T00:16:59.684Z,7.60
2018-06-16T00:18:35.279Z,7.43
2018-06-16T00:20:10.833Z,7.50
2018-06-16T00:21:46.410Z,8.50
2018-06-16T00:23:22.661Z,9.37
2018-06-16T00:24:59.306Z,8.23
2018-06-16T00:26:34.918Z,8.57
2018-06-16T00:28:10.510Z,8.53
2018-06-16T00:29:46.228Z,7.73
2018-06-16T00:31:21.846Z,8.57
2018-06-16T00:32:57.453Z,8.83
2018-06-16T00:34:33.077Z,9.40
2018-06-16T00:36:08.868Z,10.03
2018-06-16T00:37:44.400Z,8.63
2018-06-16T00:39:19.993Z,8.80
2018-06-16T00:40:55.611Z,9.13
2018-06-16T00:42:31.184Z,8.10
2018-06-16T00:44:06.830Z,8.33
2018-06-16T00:45:42.385Z,9.17
2018-06-16T00:47:18.121Z,7.77
2018-06-16T00:48:53.692Z,8.27
2018-06-16T00:50:29.438Z,9.57
2018-06-16T00:52:05.007Z,9.23
2018-06-16T00:53:40.615Z,9.13
2018-06-16T00:55:16.253Z,9.33
2018-06-16T00:57:02.921Z,10.23
2018-06-16T00:58:38.862Z,9.60
2018-06-16T01:00:15.216Z,9.70
2018-06-16T01:01:50.841Z,9.80
2018-06-16T01:03:26.469Z,10.43
2018-06-16T01:05:02.067Z,10.40
2018-06-16T01:06:37.720Z,10.00
2018-06-16T01:08:13.398Z,9.53
2018-06-16T01:09:49.037Z,10.20
2018-06-16T01:11:24.655Z,10.57
2018-06-16T01:13:00.309Z,10.40
2018-06-16T01:14:35.901Z,10.30
2018-06-16T01:16:11.759Z,9.70
2018-06-16T01:17:47.350Z,9.03
2018-06-16T01:19:22.980Z,8.73
2018-06-16T01:20:58.603Z,8.53
2018-06-16T01:22:34.182Z,8.67
2018-06-16T01:24:09.876Z,8.53
2018-06-16T01:25:45.545Z,7.43
2018-06-16T01:27:21.116Z,8.23
2018-06-16T01:28:56.733Z,7.93
2018-06-16T01:30:32.386Z,8.03
2018-06-16T01:32:07.959Z,7.63
2018-06-16T01:33:43.618Z,9.03
2018-06-16T01:35:19.230Z,10.27
2018-06-16T01:36:54.832Z,11.17
2018-06-16T01:38:30.412Z,10.73
2018-06-16T01:40:06.060Z,10.37
2018-06-16T01:41:41.701Z,10.33
2018-06-16T01:43:17.313Z,10.70
2018-06-16T01:44:52.980Z,10.10
2018-06-16T01:46:28.599Z,10.30
2018-06-16T01:48:04.440Z,9.93
2018-06-16T01:49:40.031Z,9.30
2018-06-16T01:51:15.613Z,9.57
2018-06-16T01:52:51.218Z,9.53
2018-06-16T01:54:26.886Z,9.20
2018-06-16T01:56:02.446Z,8.70
2018-06-16T01:57:38.053Z,9.07
2018-06-16T01:59:13.729Z,8.33
2018-06-16T02:00:49.362Z,9.37
2018-06-16T02:02:24.938Z,9.67
2018-06-16T02:04:00.620Z,9.20
2018-06-16T02:05:36.242Z,9.57
2018-06-16T02:07:11.863Z,9.20
2018-06-16T02:08:48.057Z,9.53
2018-06-16T02:10:23.645Z,9.40
2018-06-16T02:11:59.266Z,9.47
2018-06-16T02:13:34.823Z,9.50
2018-06-16T02:15:10.445Z,9.10
2018-06-16T02:16:46.023Z,8.70
2018-06-16T02:18:21.641Z,8.97
2018-06-16T02:19:57.256Z,8.63
2018-06-16T02:21:32.909Z,9.10
2018-06-16T02:23:08.480Z,7.60
2018-06-16T02:24:44.098Z,7.93
2018-06-16T02:26:19.663Z,8.53
2018-06-16T02:27:55.260Z,8.73
2018-06-16T02:29:31.925Z,9.17
2018-06-16T02:31:07.550Z,9.10
2018-06-16T02:32:43.148Z,8.20
2018-06-16T02:34:18.723Z,8.07
2018-06-16T02:35:54.956Z,8.00
2018-06-16T02:37:30.617Z,9.00
2018-06-16T02:39:08.621Z,8.90
2018-06-16T02:40:44.277Z,8.47
2018-06-16T02:42:19.898Z,9.50
2018-06-16T02:43:55.532Z,9.27
2018-06-16T02:45:31.178Z,9.03
2018-06-16T02:47:06.816Z,8.67
2018-06-16T02:48:42.480Z,8.30
2018-06-16T02:50:18.258Z,8.47
2018-06-16T02:51:53.748Z,8.80
2018-06-16T02:53:29.331Z,8.00
2018-06-16T02:55:04.985Z,8.50
2018-06-16T02:56:40.642Z,8.33
2018-06-16T02:58:16.208Z,8.67
2018-06-16T02:59:52.013Z,8.10
2018-06-16T03:01:27.677Z,7.80
2018-06-16T03:03:03.290Z,8.60
2018-06-16T03:04:38.910Z,8.70
2018-06-16T03:06:14.477Z,8.70
2018-06-16T03:07:50.077Z,8.13
2018-06-16T03:09:25.649Z,9.20
2018-06-16T03:11:01.311Z,8.77
2018-06-16T03:12:36.950Z,9.57
2018-06-16T03:14:12.578Z,9.23
2018-06-16T03:15:48.205Z,10.37
2018-06-16T03:17:23.852Z,9.40
2018-06-16T03:18:59.449Z,9.97
2018-06-16T03:20:35.183Z,10.00
2018-06-16T03:22:10.809Z,9.57
2018-06-16T03:23:46.400Z,9.00
2018-06-16T03:25:22.025Z,9.67
2018-06-16T03:26:57.644Z,9.70
2018-06-16T03:28:33.440Z,10.10
2018-06-16T03:30:09.028Z,9.60
2018-06-16T03:31:44.648Z,9.50
2018-06-16T03:33:20.404Z,8.27
2018-06-16T03:34:56.013Z,9.47
2018-06-16T03:36:31.601Z,9.87
2018-06-16T03:38:07.283Z,9.23
2018-06-16T03:39:44.014Z,8.37
2018-06-16T03:41:19.594Z,9.20
2018-06-16T03:42:55.236Z,8.27
2018-06-16T03:44:30.799Z,8.33
2018-06-16T03:46:06.437Z,7.90
2018-06-16T03:47:42.043Z,8.10
2018-06-16T03:49:18.061Z,9.73
2018-06-16T03:50:53.653Z,9.50
2018-06-16T03:52:29.542Z,8.97
2018-06-16T03:54:05.613Z,9.03
2018-06-16T03:55:41.220Z,9.40
2018-06-16T03:57:16.940Z,9.43
2018-06-16T03:58:52.554Z,7.77
2018-06-16T04:00:28.216Z,7.33
2018-06-16T04:02:03.784Z,8.00
2018-06-16T04:03:39.404Z,8.53
2018-06-16T04:05:15.038Z,8.27
2018-06-16T04:06:50.721Z,8.40
2018-06-16T04:08:26.261Z,9.60
2018-06-16T04:10:01.826Z,9.10
2018-06-16T04:11:37.396Z,9.00
2018-06-16T04:13:13.066Z,8.77
2018-06-16T04:14:49.028Z,9.40
2018-06-16T04:16:26.696Z,9.27
2018-06-16T04:18:02.299Z,8.67
2018-06-16T04:19:37.970Z,7.90
2018-06-16T04:21:13.657Z,7.43
2018-06-16T04:22:49.260Z,7.80
2018-06-16T04:24:24.820Z,7.80
2018-06-16T04:26:00.441Z,9.37
2018-06-16T04:27:36.099Z,8.60
2018-06-16T04:29:11.723Z,9.43
2018-06-16T04:30:47.341Z,9.83
2018-06-16T04:32:22.913Z,9.27
2018-06-16T04:33:58.547Z,8.30
2018-06-16T04:35:34.255Z,8.90
2018-06-16T04:37:09.837Z,8.07
2018-06-16T04:38:45.449Z,7.60
2018-06-16T04:40:21.010Z,7.73
2018-06-16T04:41:56.681Z,7.37
2018-06-16T04:43:32.281Z,6.90
2018-06-16T04:45:07.922Z,7.40
2018-06-16T04:46:43.498Z,7.37
2018-06-16T04:48:19.317Z,7.60
2018-06-16T04:49:54.873Z,7.17
2018-06-16T04:51:30.523Z,7.53
2018-06-16T04:53:06.221Z,7.50
2018-06-16T04:54:41.738Z,7.80
2018-06-16T04:56:17.316Z,7.40
2018-06-16T04:57:53.125Z,6.80
2018-06-16T04:59:28.733Z,8.17
2018-06-16T05:01:04.369Z,7.83
2018-06-16T05:02:39.980Z,7.73
2018-06-16T05:04:15.569Z,7.90
2018-06-16T05:05:51.207Z,8.93
2018-06-16T05:07:26.797Z,8.47
2018-06-16T05:09:02.468Z,7.83
2018-06-16T05:10:39.170Z,7.97
2018-06-16T05:12:14.805Z,7.70
2018-06-16T05:13:50.369Z,7.80
2018-06-16T05:15:25.967Z,7.50
2018-06-16T05:17:01.638Z,7.03
2018-06-16T05:18:37.156Z,8.20
2018-06-16T05:20:12.770Z,7.37
2018-06-16T05:21:48.335Z,7.53
2018-06-16T05:23:24.305Z,7.90
2018-06-16T05:24:59.879Z,7.80
2018-06-16T05:26:35.560Z,8.13
2018-06-16T05:28:11.173Z,8.33
2018-06-16T05:29:46.732Z,8.03
2018-06-16T05:31:22.458Z,7.57
2018-06-16T05:33:04.204Z,8.23
2018-06-16T05:34:45.322Z,7.70
2018-06-16T05:36:23.782Z,7.73
2018-06-16T05:38:04.319Z,8.13
2018-06-16T05:41:14.390Z,10.10
2018-06-16T05:42:52.743Z,9.27
2018-06-16T05:44:33.076Z,8.30
2018-06-16T05:46:12.652Z,9.30
2018-06-16T05:48:05.852Z,10.00
2018-06-16T05:50:07.107Z,8.60
2018-06-16T05:54:02.417Z,8.80
2018-06-16T05:56:08.727Z,9.40
2018-06-16T05:58:01.357Z,8.37
2018-06-16T05:59:40.685Z,7.80
2018-06-16T06:01:17.598Z,7.83
2018-06-16T06:02:59.991Z,8.50
2018-06-16T06:04:38.152Z,8.70
2018-06-16T06:06:18.680Z,9.37
2018-06-16T06:08:00.254Z,9.10
2018-06-16T06:09:39.666Z,8.27
2018-06-16T06:11:22.593Z,8.57
2018-06-16T06:12:59.216Z,9.57
2018-06-16T06:14:39.596Z,11.00
2018-06-16T06:16:16.900Z,8.57
2018-06-16T06:17:58.097Z,9.60
2018-06-16T06:19:36.015Z,8.90
2018-06-16T06:21:13.385Z,10.10
2018-06-16T06:22:53.362Z,10.23
2018-06-16T06:24:41.937Z,10.47
2018-06-16T06:26:53.298Z,11.27
2018-06-16T06:28:34.725Z,9.60
2018-06-16T06:30:12.953Z,10.17
2018-06-16T06:31:49.131Z,9.90
2018-06-16T06:33:25.414Z,9.60
2018-06-16T06:35:01.348Z,9.83
2018-06-16T06:36:37.305Z,10.43
2018-06-16T06:38:12.915Z,9.50
2018-06-16T06:39:48.501Z,10.77
2018-06-16T06:41:24.382Z,10.97
2018-06-16T06:43:00.017Z,11.57
2018-06-16T06:44:35.613Z,11.40
2018-06-16T06:46:11.281Z,11.47
2018-06-16T06:47:46.947Z,10.63
2018-06-16T06:49:22.572Z,10.50
2018-06-16T06:50:58.206Z,10.27
2018-06-16T06:52:33.802Z,11.27
2018-06-16T06:54:09.733Z,11.03
2018-06-16T06:55:45.334Z,11.10
2018-06-16T06:57:22.001Z,11.43
2018-06-16T06:58:57.650Z,12.10
2018-06-16T07:00:33.406Z,13.17
2018-06-16T07:02:09.244Z,13.60
2018-06-16T07:03:44.813Z,15.00
2018-06-16T07:05:20.444Z,14.93
2018-06-16T07:06:56.071Z,14.77
2018-06-16T07:08:31.720Z,14.07
2018-06-16T07:10:07.291Z,14.37
2018-06-16T07:11:43.787Z,14.80
2018-06-16T07:13:19.386Z,13.83
2018-06-16T07:14:54.965Z,13.63
2018-06-16T07:16:30.562Z,15.97
2018-06-16T07:18:06.369Z,13.43
2018-06-16T07:19:42.016Z,14.03
2018-06-16T07:21:17.675Z,14.07
2018-06-16T07:22:53.621Z,13.53
2018-06-16T07:24:29.276Z,12.70
2018-06-16T07:26:04.900Z,13.13
2018-06-16T07:27:40.577Z,13.27
2018-06-16T07:29:16.273Z,13.27
2018-06-16T07:30:51.802Z,13.97
2018-06-16T07:32:27.441Z,12.80
2018-06-16T07:34:03.088Z,13.13
2018-06-16T07:35:39.096Z,12.80
2018-06-16T07:37:14.989Z,11.77
2018-06-16T07:38:50.660Z,13.00
2018-06-16T07:40:27.239Z,13.20
2018-06-16T07:42:02.826Z,13.27
2018-06-16T07:43:38.478Z,12.40
2018-06-16T07:45:14.155Z,11.23
2018-06-16T07:46:49.766Z,11.70
2018-06-16T07:48:25.398Z,12.37
2018-06-16T07:50:01.073Z,11.80
2018-06-16T07:51:36.973Z,12.23
2018-06-16T07:53:12.609Z,12.83
2018-06-16T07:54:48.284Z,12.00
2018-06-16T07:56:23.995Z,11.63
2018-06-16T07:57:59.680Z,11.90
2018-06-16T07:59:35.702Z,11.37
2018-06-16T08:01:11.385Z,11.93
2018-06-16T08:02:52.118Z,11.70
2018-06-16T08:04:31.893Z,11.80
2018-06-16T08:06:09.364Z,11.07
2018-06-16T08:07:51.110Z,12.00
2018-06-16T08:09:39.493Z,11.50
2018-06-16T08:13:11.903Z,11.17
2018-06-16T08:14:48.389Z,12.23
2018-06-16T08:16:24.258Z,11.87
2018-06-16T08:18:06.623Z,11.47
2018-06-16T08:19:42.454Z,11.40
2018-06-16T08:21:19.042Z,11.23
2018-06-16T08:22:56.402Z,11.07
2018-06-16T08:24:32.933Z,11.80
2018-06-16T08:26:10.578Z,11.13
2018-06-16T08:27:46.857Z,11.37
2018-06-16T08:29:23.010Z,12.07
2018-06-16T08:30:59.786Z,10.53
2018-06-16T08:32:35.459Z,10.43
2018-06-16T08:34:12.850Z,10.27
2018-06-16T08:35:49.285Z,10.70
2018-06-16T08:37:30.182Z,9.93
2018-06-16T08:39:14.268Z,9.07
2018-06-16T08:40:51.035Z,9.30
2018-06-16T08:42:35.238Z,9.73
2018-06-16T08:44:11.536Z,10.73
2018-06-16T08:45:48.246Z,10.03
2018-06-16T08:47:24.374Z,9.53
2018-06-16T08:49:00.905Z,9.87
2018-06-16T08:50:37.821Z,10.10
2018-06-16T08:52:15.447Z,10.03
2018-06-16T08:53:51.640Z,9.53
2018-06-16T08:55:27.458Z,9.93
2018-06-16T08:57:03.010Z,10.03
2018-06-16T08:58:38.721Z,8.53
2018-06-16T09:00:14.697Z,8.13
2018-06-16T09:01:50.475Z,7.67
2018-06-16T09:03:33.165Z,8.40
2018-06-16T09:05:10.123Z,7.93
2018-06-16T09:06:45.816Z,7.70
2018-06-16T09:08:21.710Z,9.50
2018-06-16T09:09:57.548Z,8.17
2018-06-16T09:11:33.515Z,8.27
2018-06-16T09:13:09.143Z,7.50
2018-06-16T09:14:44.728Z,7.60
2018-06-16T09:16:20.350Z,8.90
2018-06-16T09:17:56.728Z,8.27
2018-06-16T09:19:34.507Z,7.93
2018-06-16T09:21:10.138Z,7.63
2018-06-16T09:22:45.791Z,7.23
2018-06-16T09:24:21.672Z,6.87
2018-06-16T09:25:58.202Z,6.53
2018-06-16T09:27:33.883Z,6.10
2018-06-16T09:29:09.828Z,6.30
2018-06-16T09:30:45.442Z,7.27
2018-06-16T09:32:21.318Z,7.30
2018-06-16T09:33:57.183Z,7.37
2018-06-16T09:35:33.313Z,7.40
2018-06-16T09:37:09.016Z,8.80
2018-06-16T09:38:44.692Z,7.47
2018-06-16T09:40:20.314Z,7.17
2018-06-16T09:41:55.881Z,8.53
2018-06-16T09:43:31.497Z,7.40
2018-06-16T09:45:07.182Z,7.63
2018-06-16T09:46:43.149Z,8.53
2018-06-16T09:48:18.842Z,8.03
2018-06-16T09:49:54.583Z,6.00
2018-06-16T09:51:30.275Z,7.30
2018-06-16T09:53:06.351Z,6.60
2018-06-16T09:54:42.031Z,6.47
2018-06-16T09:56:17.686Z,6.80
2018-06-16T09:57:53.352Z,6.87
2018-06-16T09:59:28.992Z,6.50
2018-06-16T10:01:05.166Z,7.00
2018-06-16T10:02:40.811Z,7.03
2018-06-16T10:04:16.462Z,7.90
2018-06-16T10:05:52.111Z,6.93
2018-06-16T10:07:28.145Z,6.37
2018-06-16T10:09:05.161Z,6.10
2018-06-16T10:10:41.297Z,6.17
2018-06-16T10:12:16.920Z,6.03
2018-06-16T10:13:52.541Z,6.13
2018-06-16T10:15:28.126Z,6.00
2018-06-16T10:17:04.325Z,6.20
2018-06-16T10:18:39.961Z,6.13
2018-06-16T10:20:15.582Z,6.60
2018-06-16T10:21:51.174Z,6.17
2018-06-16T10:23:27.057Z,5.73
2018-06-16T10:25:02.670Z,5.87
2018-06-16T10:26:39.045Z,7.60
2018-06-16T10:28:16.451Z,5.87
2018-06-16T10:29:52.244Z,5.77
2018-06-16T10:31:28.032Z,5.00
2018-06-16T10:33:03.655Z,5.80
2018-06-16T10:34:42.789Z,5.10
2018-06-16T10:36:18.437Z,5.33
2018-06-16T10:37:53.984Z,5.57
2018-06-16T10:39:30.254Z,5.23
2018-06-16T10:41:05.819Z,5.10
2018-06-16T10:42:41.388Z,5.30
2018-06-16T10:44:17.001Z,5.37
2018-06-16T10:45:52.600Z,5.43
2018-06-16T10:47:28.608Z,5.30
2018-06-16T10:49:04.177Z,5.43
2018-06-16T10:50:39.749Z,5.03
2018-06-16T10:52:15.350Z,5.10
2018-06-16T10:53:54.134Z,5.63
2018-06-16T10:55:30.664Z,5.50
2018-06-16T10:57:06.234Z,4.63
2018-06-16T10:58:41.831Z,4.13
2018-06-16T11:00:17.561Z,4.20
2018-06-16T11:01:53.161Z,4.13
2018-06-16T11:03:29.667Z,4.20
2018-06-16T11:05:05.254Z,4.30
2018-06-16T11:06:40.853Z,4.50
2018-06-16T11:10:22.166Z,4.67
2018-06-16T11:12:02.520Z,4.00
2018-06-16T11:13:40.179Z,4.10
2018-06-16T11:15:16.379Z,4.22
2018-06-16T11:16:52.213Z,3.87
2018-06-16T11:18:27.930Z,4.22
2018-06-16T11:20:03.557Z,3.90
2018-06-16T11:21:40.219Z,4.00
2018-06-16T11:23:16.025Z,3.75
2018-06-16T11:24:53.839Z,4.00
2018-06-16T11:26:29.398Z,4.45
2018-06-16T11:28:05.034Z,4.00
2018-06-16T11:29:40.639Z,3.77
2018-06-16T11:31:17.169Z,3.95
2018-06-16T11:32:57.298Z,3.75
2018-06-16T11:34:33.705Z,4.08
2018-06-16T11:36:09.306Z,4.00
2018-06-16T11:37:45.658Z,3.60
2018-06-16T11:39:21.227Z,3.45
2018-06-16T11:40:57.305Z,4.08
2018-06-16T11:42:32.790Z,3.40
2018-06-16T11:44:09.145Z,3.70
2018-06-16T11:45:45.498Z,3.83
2018-06-16T11:47:23.234Z,3.60
2018-06-16T11:48:58.786Z,4.65
2018-06-16T11:50:36.486Z,3.30
2018-06-16T11:52:13.230Z,3.30
2018-06-16T11:53:48.960Z,3.62
2018-06-16T11:55:25.494Z,3.67
2018-06-16T11:57:01.973Z,3.50
2018-06-16T11:58:38.189Z,3.40
2018-06-16T12:00:13.838Z,3.62
2018-06-16T12:01:49.615Z,3.20
2018-06-16T12:03:25.174Z,3.60
2018-06-16T12:05:00.801Z,3.12
2018-06-16T12:08:41.733Z,3.10
2018-06-16T12:10:19.400Z,3.40
2018-06-16T12:11:56.153Z,3.02
2018-06-16T12:13:32.609Z,2.95
2018-06-16T12:15:09.208Z,3.22
2018-06-16T12:16:48.791Z,3.00
2018-06-16T12:18:26.751Z,3.10
2018-06-16T12:20:03.885Z,2.90
2018-06-16T12:21:42.079Z,3.45
2018-06-16T12:23:18.239Z,3.40
2018-06-16T12:24:55.252Z,3.25
2018-06-16T12:26:32.031Z,2.83
2018-06-16T12:28:08.525Z,2.62
2018-06-16T12:29:46.934Z,2.98
2018-06-16T12:31:24.861Z,2.80
2018-06-16T12:33:03.313Z,2.58
2018-06-16T12:34:44.486Z,2.90
2018-06-16T12:36:25.834Z,3.00
2018-06-16T12:38:01.534Z,3.00
2018-06-16T12:39:37.100Z,2.92
2018-06-16T12:41:13.549Z,2.75
2018-06-16T12:42:49.214Z,2.50
2018-06-16T12:44:25.862Z,2.40
2018-06-16T12:46:03.163Z,2.40
2018-06-16T12:47:44.521Z,2.52
2018-06-16T12:49:20.344Z,2.75
2018-06-16T12:51:00.767Z,2.70
2018-06-16T12:52:45.395Z,2.80
2018-06-16T12:54:20.957Z,3.00
2018-06-16T12:55:58.626Z,2.40
2018-06-16T12:57:35.613Z,2.95
2018-06-16T12:59:11.708Z,2.62
2018-06-16T13:00:47.883Z,3.08
2018-06-16T13:02:23.594Z,2.58
2018-06-16T13:04:00.967Z,2.70
2018-06-16T13:05:36.624Z,2.45
2018-06-16T13:07:12.721Z,2.87
2018-06-16T13:08:50.172Z,2.83
2018-06-16T13:10:25.949Z,3.00
2018-06-16T13:12:03.169Z,2.80
2018-06-16T13:13:42.497Z,3.02
2018-06-16T13:15:18.527Z,2.45
2018-06-16T13:16:58.617Z,2.50
2018-06-16T13:18:34.525Z,2.75
2018-06-16T13:20:10.050Z,2.22
2018-06-16T13:21:45.644Z,2.60
2018-06-16T13:23:21.206Z,2.30
2018-06-16T13:24:57.096Z,2.12
2018-06-16T13:26:33.053Z,2.62
2018-06-16T13:28:11.043Z,2.92
2018-06-16T13:31:52.991Z,2.40
2018-06-16T13:33:28.605Z,2.80
2018-06-16T13:35:04.265Z,2.80
2018-06-16T13:36:39.793Z,2.40
2018-06-16T13:38:15.349Z,2.60
2018-06-16T13:39:51.038Z,2.90
2018-06-16T13:41:27.645Z,2.58
2018-06-16T13:43:04.936Z,4.03
2018-06-16T13:44:42.948Z,2.90
2018-06-16T13:46:18.561Z,2.90
2018-06-16T13:47:54.441Z,3.20
2018-06-16T13:49:31.097Z,2.65
2018-06-16T13:51:06.879Z,2.35
2018-06-16T13:52:42.455Z,2.85
2018-06-16T13:54:21.988Z,2.50
2018-06-16T13:55:57.569Z,2.87
2018-06-16T13:57:33.387Z,2.60
2018-06-16T13:59:09.705Z,2.40
2018-06-16T14:00:45.294Z,3.30
2018-06-16T14:02:21.834Z,2.80
2018-06-16T14:03:57.415Z,2.60
2018-06-16T14:05:33.771Z,6.90
2018-06-16T14:07:09.411Z,2.92
2018-06-16T14:08:44.942Z,3.58
2018-06-16T14:10:22.260Z,3.67
2018-06-16T14:11:58.514Z,2.70
2018-06-16T14:13:35.177Z,3.02
2018-06-16T14:15:11.836Z,3.27
2018-06-16T14:16:48.346Z,2.52
2018-06-16T14:18:24.837Z,2.85
2018-06-16T14:20:04.711Z,3.95
2018-06-16T14:21:40.721Z,3.12
2018-06-16T14:23:16.254Z,2.90
2018-06-16T14:24:53.576Z,2.87
2018-06-16T14:26:31.056Z,2.75
2018-06-16T14:28:06.792Z,2.92
2018-06-16T14:29:42.483Z,3.10
2018-06-16T14:31:18.758Z,2.70
2018-06-16T14:32:54.600Z,3.08
2018-06-16T14:34:31.189Z,3.00
2018-06-16T14:36:07.916Z,2.80
2018-06-16T14:37:44.207Z,2.87
2018-06-16T14:39:19.799Z,2.80
2018-06-16T14:40:55.866Z,2.70
2018-06-16T14:42:31.957Z,2.83
2018-06-16T14:44:07.519Z,2.90
2018-06-16T14:45:43.069Z,2.87
2018-06-16T14:47:19.185Z,2.80
2018-06-16T14:48:54.847Z,2.90
2018-06-16T14:50:34.240Z,2.42
2018-06-16T14:52:11.462Z,2.70
2018-06-16T14:53:47.098Z,2.75
2018-06-16T14:55:23.668Z,3.00
2018-06-16T14:56:59.229Z,3.33
2018-06-16T14:58:35.145Z,2.72
2018-06-16T15:00:11.327Z,3.00
2018-06-16T15:01:46.985Z,3.12
2018-06-16T15:03:22.584Z,3.70
2018-06-16T15:04:58.224Z,3.70
2018-06-16T15:06:33.827Z,4.65
2018-06-16T15:08:09.462Z,3.00
2018-06-16T15:09:45.279Z,2.50
2018-06-16T15:11:20.835Z,2.65
2018-06-16T15:12:56.397Z,2.30
2018-06-16T15:16:37.931Z,2.85
2018-06-16T15:18:13.523Z,3.87
2018-06-16T15:19:49.158Z,3.12
2018-06-16T15:21:24.749Z,3.02
2018-06-16T15:23:00.372Z,2.55
2018-06-16T15:24:35.981Z,2.40
2018-06-16T15:26:11.494Z,2.47
2018-06-16T15:27:47.004Z,2.80
2018-06-16T15:29:23.238Z,3.27
2018-06-16T15:30:59.844Z,3.10
2018-06-16T15:32:35.417Z,3.20
2018-06-16T15:34:11.199Z,2.90
2018-06-16T15:35:46.756Z,3.10
2018-06-16T15:37:22.585Z,3.10
2018-06-16T15:38:58.318Z,2.87
2018-06-16T15:40:33.961Z,3.00
2018-06-16T15:42:10.286Z,3.17
2018-06-16T15:43:57.323Z,3.15
2018-06-16T15:45:37.138Z,2.70
2018-06-16T15:51:30.695Z,2.90
2018-06-16T15:53:07.850Z,3.05
2018-06-16T15:54:43.498Z,2.65
2018-06-16T15:56:19.116Z,2.72
2018-06-16T15:57:54.869Z,2.83
2018-06-16T15:59:30.565Z,2.87
2018-06-16T16:01:07.679Z,3.87
2018-06-16T16:02:45.121Z,3.15
2018-06-16T16:04:23.647Z,2.70
2018-06-16T16:05:59.221Z,3.08
2018-06-16T16:07:36.440Z,3.20
2018-06-16T16:09:12.095Z,2.65
2018-06-16T16:10:48.218Z,3.22
2018-06-16T16:12:24.056Z,3.00
2018-06-16T16:13:59.735Z,3.22
2018-06-16T16:15:35.316Z,2.95
2018-06-16T16:17:10.922Z,3.45
2018-06-16T16:18:46.684Z,2.90
2018-06-16T16:20:26.176Z,2.90
2018-06-16T16:22:03.300Z,3.15
2018-06-16T16:23:40.207Z,2.72
2018-06-16T16:25:21.566Z,3.20
2018-06-16T16:27:01.322Z,2.77
2018-06-16T16:28:52.452Z,2.62
2018-06-16T16:30:43.773Z,2.95
2018-06-16T16:32:22.282Z,3.02
2018-06-16T16:34:00.019Z,3.17
2018-06-16T16:35:39.251Z,2.85
2018-06-16T16:37:15.062Z,2.75
2018-06-16T16:38:51.500Z,2.83
2018-06-16T16:40:27.170Z,2.80
2018-06-16T16:42:02.761Z,2.75
2018-06-16T16:43:38.313Z,2.87
2018-06-16T16:45:14.278Z,2.95
2018-06-16T16:46:49.933Z,2.70
2018-06-16T16:48:25.490Z,3.45
2018-06-16T16:50:01.289Z,3.37
2018-06-16T16:51:38.921Z,3.22
2018-06-16T16:53:14.429Z,5.40
2018-06-16T16:54:50.988Z,3.40
2018-06-16T16:56:26.559Z,3.10
2018-06-16T16:58:02.113Z,3.22
2018-06-16T16:59:37.768Z,3.20
2018-06-16T17:01:14.384Z,4.08
2018-06-16T17:02:49.981Z,2.80
2018-06-16T17:04:25.719Z,3.10
2018-06-16T17:06:01.321Z,3.50
2018-06-16T17:07:37.407Z,3.92
2018-06-16T17:09:13.170Z,3.52
2018-06-16T17:10:48.730Z,3.22
2018-06-16T17:12:24.265Z,3.20
2018-06-16T17:13:59.884Z,3.27
2018-06-16T17:15:36.110Z,3.30
2018-06-16T17:17:11.688Z,4.67
2018-06-16T17:18:49.561Z,3.47
2018-06-16T17:20:25.160Z,3.42
2018-06-16T17:22:01.170Z,3.60
2018-06-16T17:23:37.644Z,4.37
2018-06-16T17:25:14.071Z,3.87
2018-06-16T17:26:49.734Z,4.15
2018-06-16T17:28:25.309Z,3.98
2018-06-16T17:30:01.277Z,5.03
2018-06-16T17:31:37.232Z,5.20
2018-06-16T17:33:13.665Z,4.15
2018-06-16T17:34:49.837Z,4.67
2018-06-16T17:36:28.675Z,3.47
2018-06-16T17:38:08.748Z,3.72
2018-06-16T17:39:59.497Z,3.50
2018-06-16T17:42:06.110Z,3.90
2018-06-16T17:43:55.682Z,4.00
2018-06-16T17:45:34.801Z,3.30
2018-06-16T17:47:14.076Z,3.77
2018-06-16T17:48:57.821Z,4.40
2018-06-16T17:50:34.072Z,3.43
2018-06-16T17:52:11.600Z,4.10
2018-06-16T17:53:58.034Z,4.97
2018-06-16T17:55:41.323Z,3.83
2018-06-16T17:57:38.704Z,4.00
2018-06-16T17:59:34.281Z,3.73
2018-06-16T18:01:29.771Z,4.00
2018-06-16T18:03:16.531Z,3.67
2018-06-16T18:04:52.623Z,3.80
2018-06-16T18:06:33.114Z,4.30
2018-06-16T18:08:09.517Z,3.97
2018-06-16T18:09:48.174Z,4.13
2018-06-16T18:11:24.771Z,3.90
2018-06-16T18:13:04.103Z,3.83
2018-06-16T18:14:46.907Z,3.90
2018-06-16T18:16:32.742Z,3.90
2018-06-16T18:18:27.249Z,3.97
2018-06-16T18:20:17.915Z,4.10
2018-06-16T18:21:56.621Z,4.10
2018-06-16T18:23:33.632Z,4.17
2018-06-16T18:25:09.409Z,3.63
2018-06-16T18:26:54.327Z,3.90
2018-06-16T18:28:37.314Z,3.80
2018-06-16T18:30:31.351Z,4.13
2018-06-16T18:32:08.526Z,3.57
2018-06-16T18:33:45.414Z,3.50
2018-06-16T18:35:20.988Z,4.00
2018-06-16T18:37:05.882Z,3.80
2018-06-16T18:38:42.008Z,3.80
2018-06-16T18:40:20.874Z,4.37
2018-06-16T18:41:57.440Z,3.57
2018-06-16T18:43:33.922Z,4.27
2018-06-16T18:45:10.552Z,4.20
2018-06-16T18:46:48.137Z,4.00
2018-06-16T18:48:46.547Z,4.10
2018-06-16T18:50:38.273Z,4.00
2018-06-16T18:52:23.771Z,4.07
2018-06-16T18:54:04.556Z,3.83
2018-06-16T18:55:44.995Z,4.10
2018-06-16T18:57:27.993Z,4.17
2018-06-16T18:59:05.234Z,4.10
2018-06-16T19:00:42.602Z,4.40
2018-06-16T19:02:19.969Z,4.17
2018-06-16T19:03:56.254Z,4.20
2018-06-16T19:05:31.873Z,4.07
2018-06-16T19:07:08.146Z,4.50
2018-06-16T19:09:00.788Z,4.17
2018-06-16T19:10:40.861Z,4.13
2018-06-16T19:12:29.874Z,3.80
2018-06-16T19:16:09.161Z,3.90
2018-06-16T19:17:54.646Z,4.50
2018-06-16T19:19:33.331Z,4.50
2018-06-16T19:21:12.447Z,4.10
2018-06-16T19:22:48.774Z,4.10
2018-06-16T19:24:33.000Z,4.33
2018-06-16T19:26:12.692Z,4.40
2018-06-16T19:27:56.456Z,4.40
2018-06-16T19:29:33.145Z,4.57
2018-06-16T19:31:08.946Z,4.57
2018-06-16T19:32:45.628Z,4.53
2018-06-16T19:34:22.513Z,4.47
2018-06-16T19:35:58.400Z,5.00
2018-06-16T19:37:34.370Z,4.30
2018-06-16T19:39:17.681Z,4.60
2018-06-16T19:40:53.720Z,4.70
2018-06-16T19:42:29.306Z,5.43
2018-06-16T19:44:14.869Z,4.10
2018-06-16T19:45:50.754Z,4.17
2018-06-16T19:47:26.541Z,4.73
2018-06-16T19:49:02.114Z,4.73
2018-06-16T19:50:38.280Z,4.57
2018-06-16T19:52:14.785Z,4.53
2018-06-16T19:53:50.744Z,4.50
2018-06-16T19:55:26.548Z,4.60
2018-06-16T19:57:02.190Z,4.70
2018-06-16T19:58:38.101Z,4.60
2018-06-16T20:00:14.211Z,4.50
2018-06-16T20:01:51.457Z,5.10
2018-06-16T20:03:27.395Z,5.00
2018-06-16T20:05:04.133Z,4.63
2018-06-16T20:06:43.122Z,4.50
2018-06-16T20:08:18.723Z,4.07
2018-06-16T20:09:54.409Z,4.83
2018-06-16T20:11:30.095Z,4.40
2018-06-16T20:13:05.870Z,4.80
2018-06-16T20:14:43.178Z,4.70
2018-06-16T20:16:18.817Z,5.73
2018-06-16T20:17:54.368Z,4.77
2018-06-16T20:19:29.949Z,4.30
2018-06-16T20:21:05.566Z,4.80
2018-06-16T20:22:41.101Z,5.20
2018-06-16T20:24:18.526Z,4.60
2018-06-16T20:25:54.161Z,5.00
2018-06-16T20:27:31.471Z,4.60
2018-06-16T20:29:07.025Z,5.10
2018-06-16T20:30:42.574Z,4.70
2018-06-16T20:32:18.129Z,4.90
2018-06-16T20:33:53.729Z,4.80
2018-06-16T20:35:29.326Z,4.70
2018-06-16T20:37:04.903Z,4.87
2018-06-16T20:38:40.461Z,4.90
2018-06-16T20:40:16.021Z,5.00
2018-06-16T20:41:51.612Z,5.77
2018-06-16T20:43:27.233Z,4.73
2018-06-16T20:45:02.815Z,5.00
2018-06-16T20:46:38.385Z,4.90
2018-06-16T20:48:13.928Z,4.63
2018-06-16T20:49:49.715Z,5.10
2018-06-16T20:51:25.293Z,4.77
2018-06-16T20:53:01.363Z,5.40
2018-06-16T20:54:36.964Z,4.90
2018-06-16T20:56:12.493Z,4.80
2018-06-16T20:57:48.140Z,4.90
2018-06-16T20:59:24.140Z,4.87
2018-06-16T21:00:59.696Z,5.03
2018-06-16T21:02:35.455Z,5.30
2018-06-16T21:04:11.006Z,5.70
2018-06-16T21:05:46.582Z,5.37
2018-06-16T21:07:22.293Z,6.10
2018-06-16T21:15:14.814Z,5.77
2018-06-16T21:16:50.373Z,5.67
2018-06-16T21:18:25.977Z,5.23
2018-06-16T21:20:01.519Z,5.73
2018-06-16T21:21:37.121Z,5.37
2018-06-16T21:23:13.258Z,5.57
2018-06-16T21:24:50.342Z,5.77
2018-06-16T21:26:25.937Z,5.60
2018-06-16T21:28:01.500Z,5.80
2018-06-16T21:29:39.230Z,5.80
2018-06-16T21:31:14.862Z,5.67
2018-06-16T21:32:50.425Z,6.00
2018-06-16T21:34:26.413Z,6.00
2018-06-16T21:36:02.045Z,6.07
2018-06-16T21:37:38.021Z,6.20
2018-06-16T21:39:13.609Z,6.53
2018-06-16T21:40:49.192Z,6.10
2018-06-16T21:42:24.765Z,5.70
2018-06-16T21:44:01.344Z,6.43
2018-06-16T21:45:36.894Z,6.30
2018-06-16T21:47:13.950Z,6.40
2018-06-16T21:48:50.050Z,6.90
2018-06-16T21:50:25.863Z,6.50
2018-06-16T21:52:02.568Z,6.60